Terminal Aerodrome Forecast
Issued by NWS

Home | Current Version | Previous Version | Text Only | Print | Product List | Glossary On
Versions: 1 2 3 4 5 6 7 8 9 10 11 12 13 14 15 16 17 18 19 20 21 22 23 24 25
000
FTUS46 KPDT 220920 AAC
TAFALW
TAF AMD
KALW 220920Z 2209/2306 VRB05KT 6SM -RA BR OVC070
      TEMPO 2209/2213 3SM BR OVC030
     FM221300 16008KT 5SM -SHRA BR OVC040
     FM221900 16009KT P6SM BKN070=

USA.gov is the U.S. government's official web portal to all federal, state and local government web resources and services.